sensor_id;sensor_type;location;lat;lon;timestamp;temperature;humidity
63260;DHT22;49390;51.380;0.098;2023-07-20T00:01:42;19.00;99.90
63260;DHT22;49390;51.380;0.098;2023-07-20T00:04:13;19.00;99.90
63260;DHT22;49390;51.380;0.098;2023-07-20T00:06:41;18.90;99.90
63260;DHT22;49390;51.380;0.098;2023-07-20T00:09:12;18.90;99.90
63260;DHT22;49390;51.380;0.098;2023-07-20T00:11:40;18.80;99.90
63260;DHT22;49390;51.380;0.098;2023-07-20T00:14:08;18.90;99.90
63260;DHT22;49390;51.380;0.098;2023-07-20T00:16:36;18.80;99.90
63260;DHT22;49390;51.380;0.098;2023-07-20T00:19:04;18.80;99.90
63260;DHT22;49390;51.380;0.098;2023-07-20T00:21:34;18.80;99.90
63260;DHT22;49390;51.380;0.098;2023-07-20T00:24:02;18.80;99.90
63260;DHT22;49390;51.380;0.098;2023-07-20T00:26:31;18.70;99.90
63260;DHT22;49390;51.380;0.098;2023-07-20T00:28:59;18.70;99.90
63260;DHT22;49390;51.380;0.098;2023-07-20T00:31:27;18.70;99.90
63260;DHT22;49390;51.380;0.098;2023-07-20T00:33:56;18.70;99.90
63260;DHT22;49390;51.380;0.098;2023-07-20T00:36:25;18.70;99.90
63260;DHT22;49390;51.380;0.098;2023-07-20T00:38:55;18.60;99.90
63260;DHT22;49390;51.380;0.098;2023-07-20T00:41:23;18.50;99.90
63260;DHT22;49390;51.380;0.098;2023-07-20T00:43:51;18.40;99.90
63260;DHT22;49390;51.380;0.098;2023-07-20T00:46:25;18.30;99.90
63260;DHT22;49390;51.380;0.098;2023-07-20T00:48:54;18.30;99.90
63260;DHT22;49390;51.380;0.098;2023-07-20T00:51:23;18.20;99.90
63260;DHT22;49390;51.380;0.098;2023-07-20T00:53:51;18.20;99.90
63260;DHT22;49390;51.380;0.098;2023-07-20T00:56:19;18.20;99.90
63260;DHT22;49390;51.380;0.098;2023-07-20T00:58:47;18.20;99.90
63260;DHT22;49390;51.380;0.098;2023-07-20T01:01:16;18.10;99.90
63260;DHT22;49390;51.380;0.098;2023-07-20T01:03:44;18.10;99.90
63260;DHT22;49390;51.380;0.098;2023-07-20T01:06:33;18.00;99.90
63260;DHT22;49390;51.380;0.098;2023-07-20T01:09:15;18.00;99.90
63260;DHT22;49390;51.380;0.098;2023-07-20T01:14:25;17.90;99.90
63260;DHT22;49390;51.380;0.098;2023-07-20T01:16:53;17.90;99.90
63260;DHT22;49390;51.380;0.098;2023-07-20T01:19:21;17.80;99.90
63260;DHT22;49390;51.380;0.098;2023-07-20T01:22:10;17.80;99.90
63260;DHT22;49390;51.380;0.098;2023-07-20T01:30:11;17.70;99.90
63260;DHT22;49390;51.380;0.098;2023-07-20T01:32:43;17.70;99.90
63260;DHT22;49390;51.380;0.098;2023-07-20T01:35:13;17.70;99.90
63260;DHT22;49390;51.380;0.098;2023-07-20T01:37:44;17.70;99.90
63260;DHT22;49390;51.380;0.098;2023-07-20T01:40:14;17.60;99.90
63260;DHT22;49390;51.380;0.098;2023-07-20T01:42:46;17.70;99.90
63260;DHT22;49390;51.380;0.098;2023-07-20T01:45:15;17.60;99.90
63260;DHT22;49390;51.380;0.098;2023-07-20T01:47:43;17.60;99.90
63260;DHT22;49390;51.380;0.098;2023-07-20T01:50:11;17.60;99.90
63260;DHT22;49390;51.380;0.098;2023-07-20T01:52:39;17.60;99.90
63260;DHT22;49390;51.380;0.098;2023-07-20T01:55:08;17.60;99.90
63260;DHT22;49390;51.380;0.098;2023-07-20T01:57:39;17.60;99.90
63260;DHT22;49390;51.380;0.098;2023-07-20T02:00:07;17.60;99.90
63260;DHT22;49390;51.380;0.098;2023-07-20T02:02:43;17.60;99.90
63260;DHT22;49390;51.380;0.098;2023-07-20T02:05:14;17.60;99.90
63260;DHT22;49390;51.380;0.098;2023-07-20T02:07:43;17.60;99.90
63260;DHT22;49390;51.380;0.098;2023-07-20T02:10:11;17.60;99.90
63260;DHT22;49390;51.380;0.098;2023-07-20T02:12:39;17.50;99.90
63260;DHT22;49390;51.380;0.098;2023-07-20T02:15:07;17.50;99.90
63260;DHT22;49390;51.380;0.098;2023-07-20T02:17:36;17.40;99.90
63260;DHT22;49390;51.380;0.098;2023-07-20T02:20:05;17.40;99.90
63260;DHT22;49390;51.380;0.098;2023-07-20T02:22:37;17.30;99.90
63260;DHT22;49390;51.380;0.098;2023-07-20T02:25:06;17.30;99.90
63260;DHT22;49390;51.380;0.098;2023-07-20T02:27:35;17.20;99.90
63260;DHT22;49390;51.380;0.098;2023-07-20T02:30:04;17.10;99.90
63260;DHT22;49390;51.380;0.098;2023-07-20T02:32:33;17.10;99.90
63260;DHT22;49390;51.380;0.098;2023-07-20T02:35:02;17.10;99.90
63260;DHT22;49390;51.380;0.098;2023-07-20T02:37:32;17.00;99.90
63260;DHT22;49390;51.380;0.098;2023-07-20T02:40:00;17.00;99.90
63260;DHT22;49390;51.380;0.098;2023-07-20T02:42:30;17.00;99.90
63260;DHT22;49390;51.380;0.098;2023-07-20T02:44:58;17.00;99.90
63260;DHT22;49390;51.380;0.098;2023-07-20T02:47:26;16.90;99.90
63260;DHT22;49390;51.380;0.098;2023-07-20T02:49:54;16.90;99.90
63260;DHT22;49390;51.380;0.098;2023-07-20T02:52:22;17.00;99.90
63260;DHT22;49390;51.380;0.098;2023-07-20T02:54:50;16.90;99.90
63260;DHT22;49390;51.380;0.098;2023-07-20T02:57:19;16.90;99.90
63260;DHT22;49390;51.380;0.098;2023-07-20T02:59:47;16.80;99.90
63260;DHT22;49390;51.380;0.098;2023-07-20T03:02:15;16.80;99.90
63260;DHT22;49390;51.380;0.098;2023-07-20T03:04:43;16.90;99.90
63260;DHT22;49390;51.380;0.098;2023-07-20T03:07:12;16.90;99.90
63260;DHT22;49390;51.380;0.098;2023-07-20T03:09:40;16.90;99.90
63260;DHT22;49390;51.380;0.098;2023-07-20T03:12:09;16.90;99.90
63260;DHT22;49390;51.380;0.098;2023-07-20T03:14:37;16.90;99.90
63260;DHT22;49390;51.380;0.098;2023-07-20T03:17:06;16.90;99.90
63260;DHT22;49390;51.380;0.098;2023-07-20T03:19:36;16.80;99.90
63260;DHT22;49390;51.380;0.098;2023-07-20T03:22:04;16.80;99.90
63260;DHT22;49390;51.380;0.098;2023-07-20T03:24:32;16.70;99.90
63260;DHT22;49390;51.380;0.098;2023-07-20T03:27:00;16.70;99.90
63260;DHT22;49390;51.380;0.098;2023-07-20T03:29:28;16.70;99.90
63260;DHT22;49390;51.380;0.098;2023-07-20T03:31:59;16.70;99.90
63260;DHT22;49390;51.380;0.098;2023-07-20T03:34:27;16.70;99.90
63260;DHT22;49390;51.380;0.098;2023-07-20T03:36:55;16.70;99.90
63260;DHT22;49390;51.380;0.098;2023-07-20T03:39:23;16.70;99.90
63260;DHT22;49390;51.380;0.098;2023-07-20T03:41:51;16.70;99.90
63260;DHT22;49390;51.380;0.098;2023-07-20T03:44:20;16.70;99.90
63260;DHT22;49390;51.380;0.098;2023-07-20T03:46:48;16.60;99.90
63260;DHT22;49390;51.380;0.098;2023-07-20T03:49:16;16.70;99.90
63260;DHT22;49390;51.380;0.098;2023-07-20T03:51:44;16.70;99.90
63260;DHT22;49390;51.380;0.098;2023-07-20T03:54:12;16.70;99.90
63260;DHT22;49390;51.380;0.098;2023-07-20T03:56:40;16.70;99.90
63260;DHT22;49390;51.380;0.098;2023-07-20T03:59:08;16.70;99.90
63260;DHT22;49390;51.380;0.098;2023-07-20T04:01:36;16.70;99.90
63260;DHT22;49390;51.380;0.098;2023-07-20T04:04:07;16.70;99.90
63260;DHT22;49390;51.380;0.098;2023-07-20T04:06:37;16.70;99.90
63260;DHT22;49390;51.380;0.098;2023-07-20T04:09:05;16.70;99.90
63260;DHT22;49390;51.380;0.098;2023-07-20T04:11:33;16.70;99.90
63260;DHT22;49390;51.380;0.098;2023-07-20T04:14:01;16.70;99.90
63260;DHT22;49390;51.380;0.098;2023-07-20T04:16:29;16.70;99.90
63260;DHT22;49390;51.380;0.098;2023-07-20T04:18:57;16.60;99.90
63260;DHT22;49390;51.380;0.098;2023-07-20T04:21:27;16.60;99.90
63260;DHT22;49390;51.380;0.098;2023-07-20T04:23:55;16.60;99.90
63260;DHT22;49390;51.380;0.098;2023-07-20T04:26:26;16.50;99.90
63260;DHT22;49390;51.380;0.098;2023-07-20T04:28:54;16.50;99.90
63260;DHT22;49390;51.380;0.098;2023-07-20T04:31:34;16.50;99.90
63260;DHT22;49390;51.380;0.098;2023-07-20T04:34:04;16.40;99.90
63260;DHT22;49390;51.380;0.098;2023-07-20T04:36:35;16.30;99.90
63260;DHT22;49390;51.380;0.098;2023-07-20T04:39:04;16.30;99.90
63260;DHT22;49390;51.380;0.098;2023-07-20T04:41:49;16.30;99.90
63260;DHT22;49390;51.380;0.098;2023-07-20T04:44:18;16.30;99.90
63260;DHT22;49390;51.380;0.098;2023-07-20T04:46:46;16.20;99.90
63260;DHT22;49390;51.380;0.098;2023-07-20T04:49:14;16.20;99.90
63260;DHT22;49390;51.380;0.098;2023-07-20T04:51:45;16.20;99.90
63260;DHT22;49390;51.380;0.098;2023-07-20T04:54:13;16.20;99.90
63260;DHT22;49390;51.380;0.098;2023-07-20T04:56:42;16.30;99.90
63260;DHT22;49390;51.380;0.098;2023-07-20T04:59:11;16.20;99.90
63260;DHT22;49390;51.380;0.098;2023-07-20T05:01:40;16.20;99.90
63260;DHT22;49390;51.380;0.098;2023-07-20T05:04:08;16.20;99.90
63260;DHT22;49390;51.380;0.098;2023-07-20T05:06:46;16.20;99.90
63260;DHT22;49390;51.380;0.098;2023-07-20T05:09:14;16.20;99.90
63260;DHT22;49390;51.380;0.098;2023-07-20T05:11:42;16.20;99.90
63260;DHT22;49390;51.380;0.098;2023-07-20T05:14:13;16.20;99.90
63260;DHT22;49390;51.380;0.098;2023-07-20T05:16:41;16.20;99.90
63260;DHT22;49390;51.380;0.098;2023-07-20T05:19:09;16.20;99.90
63260;DHT22;49390;51.380;0.098;2023-07-20T05:21:38;16.20;99.90
63260;DHT22;49390;51.380;0.098;2023-07-20T05:24:06;16.20;99.90
63260;DHT22;49390;51.380;0.098;2023-07-20T05:26:34;16.20;99.90
63260;DHT22;49390;51.380;0.098;2023-07-20T05:29:02;16.20;99.90
63260;DHT22;49390;51.380;0.098;2023-07-20T05:31:30;16.30;99.90
63260;DHT22;49390;51.380;0.098;2023-07-20T05:33:59;16.30;99.90
63260;DHT22;49390;51.380;0.098;2023-07-20T05:36:27;16.40;99.90
63260;DHT22;49390;51.380;0.098;2023-07-20T05:38:55;16.40;99.90
63260;DHT22;49390;51.380;0.098;2023-07-20T05:41:23;16.40;99.90
63260;DHT22;49390;51.380;0.098;2023-07-20T05:43:51;16.40;99.90
63260;DHT22;49390;51.380;0.098;2023-07-20T05:46:19;16.50;99.90
63260;DHT22;49390;51.380;0.098;2023-07-20T05:48:47;16.60;99.90
63260;DHT22;49390;51.380;0.098;2023-07-20T05:51:16;16.60;99.90
63260;DHT22;49390;51.380;0.098;2023-07-20T05:53:43;16.70;99.90
63260;DHT22;49390;51.380;0.098;2023-07-20T05:56:13;16.80;99.90
63260;DHT22;49390;51.380;0.098;2023-07-20T05:58:42;16.80;99.90
63260;DHT22;49390;51.380;0.098;2023-07-20T06:01:10;16.90;99.90
63260;DHT22;49390;51.380;0.098;2023-07-20T06:03:38;16.90;99.90
63260;DHT22;49390;51.380;0.098;2023-07-20T06:07:13;17.00;99.90
63260;DHT22;49390;51.380;0.098;2023-07-20T06:09:41;17.10;99.90
63260;DHT22;49390;51.380;0.098;2023-07-20T06:12:09;17.10;99.90
63260;DHT22;49390;51.380;0.098;2023-07-20T06:14:38;17.20;99.90
63260;DHT22;49390;51.380;0.098;2023-07-20T06:17:06;17.30;99.90
63260;DHT22;49390;51.380;0.098;2023-07-20T06:19:36;17.30;99.90
63260;DHT22;49390;51.380;0.098;2023-07-20T06:22:05;17.40;99.90
63260;DHT22;49390;51.380;0.098;2023-07-20T06:24:33;17.40;99.90
63260;DHT22;49390;51.380;0.098;2023-07-20T06:27:01;17.50;99.90
63260;DHT22;49390;51.380;0.098;2023-07-20T06:29:29;17.60;99.90
63260;DHT22;49390;51.380;0.098;2023-07-20T06:31:57;17.70;99.90
63260;DHT22;49390;51.380;0.098;2023-07-20T06:34:25;17.80;99.90
63260;DHT22;49390;51.380;0.098;2023-07-20T06:36:53;18.00;99.90
63260;DHT22;49390;51.380;0.098;2023-07-20T06:39:21;18.20;99.90
63260;DHT22;49390;51.380;0.098;2023-07-20T06:41:52;18.30;99.90
63260;DHT22;49390;51.380;0.098;2023-07-20T06:44:22;18.40;99.90
63260;DHT22;49390;51.380;0.098;2023-07-20T06:46:50;18.50;99.90
63260;DHT22;49390;51.380;0.098;2023-07-20T06:49:25;18.60;99.90
63260;DHT22;49390;51.380;0.098;2023-07-20T06:51:53;18.70;99.90
63260;DHT22;49390;51.380;0.098;2023-07-20T06:54:22;18.70;99.90
63260;DHT22;49390;51.380;0.098;2023-07-20T06:56:53;18.70;99.90
63260;DHT22;49390;51.380;0.098;2023-07-20T06:59:24;18.80;99.90
63260;DHT22;49390;51.380;0.098;2023-07-20T07:01:52;18.80;99.90
63260;DHT22;49390;51.380;0.098;2023-07-20T07:04:23;18.80;99.90
63260;DHT22;49390;51.380;0.098;2023-07-20T07:06:51;19.00;99.90
63260;DHT22;49390;51.380;0.098;2023-07-20T07:09:19;19.30;99.90
63260;DHT22;49390;51.380;0.098;2023-07-20T07:11:48;19.50;99.90
63260;DHT22;49390;51.380;0.098;2023-07-20T07:14:16;19.80;99.90
63260;DHT22;49390;51.380;0.098;2023-07-20T07:16:44;20.10;99.90
63260;DHT22;49390;51.380;0.098;2023-07-20T07:19:12;20.30;99.90
63260;DHT22;49390;51.380;0.098;2023-07-20T07:21:40;20.60;99.90
63260;DHT22;49390;51.380;0.098;2023-07-20T07:24:08;21.00;99.90
63260;DHT22;49390;51.380;0.098;2023-07-20T07:26:37;21.50;97.80
63260;DHT22;49390;51.380;0.098;2023-07-20T07:29:06;22.00;95.10
63260;DHT22;49390;51.380;0.098;2023-07-20T07:31:36;22.40;92.70
63260;DHT22;49390;51.380;0.098;2023-07-20T07:34:06;22.90;90.40
63260;DHT22;49390;51.380;0.098;2023-07-20T07:36:35;23.20;86.60
63260;DHT22;49390;51.380;0.098;2023-07-20T07:39:03;23.40;83.40
63260;DHT22;49390;51.380;0.098;2023-07-20T07:41:54;23.50;81.60
63260;DHT22;49390;51.380;0.098;2023-07-20T07:44:22;23.70;79.40
63260;DHT22;49390;51.380;0.098;2023-07-20T07:46:50;24.00;77.80
63260;DHT22;49390;51.380;0.098;2023-07-20T07:49:18;24.30;76.00
63260;DHT22;49390;51.380;0.098;2023-07-20T07:51:47;24.60;73.50
63260;DHT22;49390;51.380;0.098;2023-07-20T07:54:15;24.80;71.10
63260;DHT22;49390;51.380;0.098;2023-07-20T07:56:45;25.10;68.80
63260;DHT22;49390;51.380;0.098;2023-07-20T07:59:14;25.30;67.10
63260;DHT22;49390;51.380;0.098;2023-07-20T08:01:42;25.50;65.50
63260;DHT22;49390;51.380;0.098;2023-07-20T08:04:10;25.80;63.60
63260;DHT22;49390;51.380;0.098;2023-07-20T08:06:38;26.00;62.20
63260;DHT22;49390;51.380;0.098;2023-07-20T08:09:06;26.20;60.90
63260;DHT22;49390;51.380;0.098;2023-07-20T08:11:34;26.30;59.80
63260;DHT22;49390;51.380;0.098;2023-07-20T08:14:04;26.40;59.00
63260;DHT22;49390;51.380;0.098;2023-07-20T08:16:32;26.50;58.30
63260;DHT22;49390;51.380;0.098;2023-07-20T08:19:01;26.50;57.40
63260;DHT22;49390;51.380;0.098;2023-07-20T08:21:33;26.40;56.30
63260;DHT22;49390;51.380;0.098;2023-07-20T08:24:01;26.40;55.40
63260;DHT22;49390;51.380;0.098;2023-07-20T08:26:31;26.40;55.00
63260;DHT22;49390;51.380;0.098;2023-07-20T08:29:00;26.40;54.70
63260;DHT22;49390;51.380;0.098;2023-07-20T08:31:28;26.40;55.20
63260;DHT22;49390;51.380;0.098;2023-07-20T08:33:56;26.40;54.20
63260;DHT22;49390;51.380;0.098;2023-07-20T08:38:37;26.50;53.30
63260;DHT22;49390;51.380;0.098;2023-07-20T08:41:05;26.60;53.30
63260;DHT22;49390;51.380;0.098;2023-07-20T08:43:35;26.80;52.80
63260;DHT22;49390;51.380;0.098;2023-07-20T08:46:05;26.90;52.20
63260;DHT22;49390;51.380;0.098;2023-07-20T08:48:33;27.10;51.40
63260;DHT22;49390;51.380;0.098;2023-07-20T08:51:02;27.30;50.90
63260;DHT22;49390;51.380;0.098;2023-07-20T08:53:32;27.30;50.70
63260;DHT22;49390;51.380;0.098;2023-07-20T08:56:01;27.20;50.70
63260;DHT22;49390;51.380;0.098;2023-07-20T08:58:30;27.10;50.70
63260;DHT22;49390;51.380;0.098;2023-07-20T09:00:59;27.00;50.20
63260;DHT22;49390;51.380;0.098;2023-07-20T09:03:29;26.80;50.10
63260;DHT22;49390;51.380;0.098;2023-07-20T09:05:57;26.70;50.10
63260;DHT22;49390;51.380;0.098;2023-07-20T09:08:25;26.60;50.10
63260;DHT22;49390;51.380;0.098;2023-07-20T09:10:54;26.50;50.20
63260;DHT22;49390;51.380;0.098;2023-07-20T09:13:22;26.30;50.20
63260;DHT22;49390;51.380;0.098;2023-07-20T09:15:54;26.20;50.50
63260;DHT22;49390;51.380;0.098;2023-07-20T09:18:30;26.00;50.70
63260;DHT22;49390;51.380;0.098;2023-07-20T09:21:01;26.00;50.50
63260;DHT22;49390;51.380;0.098;2023-07-20T09:23:39;26.00;50.30
63260;DHT22;49390;51.380;0.098;2023-07-20T09:26:13;26.10;49.60
63260;DHT22;49390;51.380;0.098;2023-07-20T09:28:51;26.40;49.20
63260;DHT22;49390;51.380;0.098;2023-07-20T09:31:22;26.60;48.80
63260;DHT22;49390;51.380;0.098;2023-07-20T09:33:53;26.70;48.40
63260;DHT22;49390;51.380;0.098;2023-07-20T09:36:27;26.80;48.60
63260;DHT22;49390;51.380;0.098;2023-07-20T09:38:59;26.90;48.50
63260;DHT22;49390;51.380;0.098;2023-07-20T09:41:39;27.00;47.90
63260;DHT22;49390;51.380;0.098;2023-07-20T09:44:15;27.20;47.20
63260;DHT22;49390;51.380;0.098;2023-07-20T09:46:48;27.20;46.60
63260;DHT22;49390;51.380;0.098;2023-07-20T09:49:19;27.10;46.70
63260;DHT22;49390;51.380;0.098;2023-07-20T09:51:54;27.10;46.90
63260;DHT22;49390;51.380;0.098;2023-07-20T09:54:23;27.00;46.30
63260;DHT22;49390;51.380;0.098;2023-07-20T09:56:52;26.90;46.00
63260;DHT22;49390;51.380;0.098;2023-07-20T09:59:22;26.70;46.10
63260;DHT22;49390;51.380;0.098;2023-07-20T10:01:52;26.40;46.30
63260;DHT22;49390;51.380;0.098;2023-07-20T10:04:21;26.10;46.40
63260;DHT22;49390;51.380;0.098;2023-07-20T10:06:55;25.80;46.60
63260;DHT22;49390;51.380;0.098;2023-07-20T10:09:24;25.60;47.10
63260;DHT22;49390;51.380;0.098;2023-07-20T10:11:53;25.50;47.10
63260;DHT22;49390;51.380;0.098;2023-07-20T10:18:12;25.80;46.90
63260;DHT22;49390;51.380;0.098;2023-07-20T10:20:44;26.00;46.20
63260;DHT22;49390;51.380;0.098;2023-07-20T10:23:17;26.10;45.90
63260;DHT22;49390;51.380;0.098;2023-07-20T10:25:45;26.00;45.70
63260;DHT22;49390;51.380;0.098;2023-07-20T10:28:14;25.80;45.90
63260;DHT22;49390;51.380;0.098;2023-07-20T10:30:45;25.50;46.10
63260;DHT22;49390;51.380;0.098;2023-07-20T10:33:14;25.30;46.40
63260;DHT22;49390;51.380;0.098;2023-07-20T10:36:00;25.10;46.80
63260;DHT22;49390;51.380;0.098;2023-07-20T10:38:39;25.00;47.00
63260;DHT22;49390;51.380;0.098;2023-07-20T10:41:28;24.90;46.80
63260;DHT22;49390;51.380;0.098;2023-07-20T10:44:09;25.00;47.00
63260;DHT22;49390;51.380;0.098;2023-07-20T10:49:08;25.00;46.60
63260;DHT22;49390;51.380;0.098;2023-07-20T10:56:44;25.40;45.80
63260;DHT22;49390;51.380;0.098;2023-07-20T11:01:36;25.50;44.70
63260;DHT22;49390;51.380;0.098;2023-07-20T11:04:08;25.60;45.00
63260;DHT22;49390;51.380;0.098;2023-07-20T11:06:36;25.70;44.40
63260;DHT22;49390;51.380;0.098;2023-07-20T11:09:07;25.80;44.20
63260;DHT22;49390;51.380;0.098;2023-07-20T11:11:42;25.70;44.10
63260;DHT22;49390;51.380;0.098;2023-07-20T11:14:21;25.60;44.10
63260;DHT22;49390;51.380;0.098;2023-07-20T11:16:53;25.50;43.80
63260;DHT22;49390;51.380;0.098;2023-07-20T11:19:23;25.50;43.60
63260;DHT22;49390;51.380;0.098;2023-07-20T11:21:57;25.70;43.60
63260;DHT22;49390;51.380;0.098;2023-07-20T11:24:33;25.80;43.40
63260;DHT22;49390;51.380;0.098;2023-07-20T11:27:04;26.00;43.30
63260;DHT22;49390;51.380;0.098;2023-07-20T11:29:34;26.00;42.90
63260;DHT22;49390;51.380;0.098;2023-07-20T11:32:03;26.00;43.30
63260;DHT22;49390;51.380;0.098;2023-07-20T11:34:34;26.00;43.40
63260;DHT22;49390;51.380;0.098;2023-07-20T11:37:02;26.10;43.50
63260;DHT22;49390;51.380;0.098;2023-07-20T11:39:34;26.10;43.40
63260;DHT22;49390;51.380;0.098;2023-07-20T11:42:03;26.30;43.10
63260;DHT22;49390;51.380;0.098;2023-07-20T11:44:35;26.40;42.70
63260;DHT22;49390;51.380;0.098;2023-07-20T11:49:40;26.60;41.50
63260;DHT22;49390;51.380;0.098;2023-07-20T11:52:10;26.60;41.40
63260;DHT22;49390;51.380;0.098;2023-07-20T11:54:39;26.60;41.40
63260;DHT22;49390;51.380;0.098;2023-07-20T11:57:19;26.70;41.40
63260;DHT22;49390;51.380;0.098;2023-07-20T12:00:00;26.80;41.20
63260;DHT22;49390;51.380;0.098;2023-07-20T12:02:33;26.90;40.80
63260;DHT22;49390;51.380;0.098;2023-07-20T12:05:02;26.90;40.60
63260;DHT22;49390;51.380;0.098;2023-07-20T12:07:35;27.00;40.50
63260;DHT22;49390;51.380;0.098;2023-07-20T12:10:06;27.10;40.40
63260;DHT22;49390;51.380;0.098;2023-07-20T12:12:37;27.20;40.30
63260;DHT22;49390;51.380;0.098;2023-07-20T12:15:17;27.20;40.30
63260;DHT22;49390;51.380;0.098;2023-07-20T12:17:52;27.30;40.50
63260;DHT22;49390;51.380;0.098;2023-07-20T12:20:36;27.30;40.50
63260;DHT22;49390;51.380;0.098;2023-07-20T12:23:14;27.30;40.40
63260;DHT22;49390;51.380;0.098;2023-07-20T12:25:45;27.20;40.40
63260;DHT22;49390;51.380;0.098;2023-07-20T12:28:16;27.20;40.40
63260;DHT22;49390;51.380;0.098;2023-07-20T12:30:45;27.30;40.20
63260;DHT22;49390;51.380;0.098;2023-07-20T12:33:17;27.40;39.90
63260;DHT22;49390;51.380;0.098;2023-07-20T12:35:45;27.30;39.40
63260;DHT22;49390;51.380;0.098;2023-07-20T12:38:13;27.30;39.70
63260;DHT22;49390;51.380;0.098;2023-07-20T12:40:44;27.20;39.80
63260;DHT22;49390;51.380;0.098;2023-07-20T12:43:12;27.30;39.90
63260;DHT22;49390;51.380;0.098;2023-07-20T12:45:40;27.40;39.90
63260;DHT22;49390;51.380;0.098;2023-07-20T12:48:09;27.60;39.80
63260;DHT22;49390;51.380;0.098;2023-07-20T12:50:37;27.70;40.30
63260;DHT22;49390;51.380;0.098;2023-07-20T12:53:05;27.70;39.10
63260;DHT22;49390;51.380;0.098;2023-07-20T12:55:38;27.80;39.10
63260;DHT22;49390;51.380;0.098;2023-07-20T12:58:07;27.80;39.00
63260;DHT22;49390;51.380;0.098;2023-07-20T13:00:36;27.70;38.80
63260;DHT22;49390;51.380;0.098;2023-07-20T13:03:04;27.50;38.80
63260;DHT22;49390;51.380;0.098;2023-07-20T13:05:35;27.30;39.00
63260;DHT22;49390;51.380;0.098;2023-07-20T13:08:06;27.00;39.10
63260;DHT22;49390;51.380;0.098;2023-07-20T13:10:38;26.90;39.10
63260;DHT22;49390;51.380;0.098;2023-07-20T13:13:06;26.90;39.00
63260;DHT22;49390;51.380;0.098;2023-07-20T13:15:44;26.90;39.00
63260;DHT22;49390;51.380;0.098;2023-07-20T13:20:42;26.90;38.70
63260;DHT22;49390;51.380;0.098;2023-07-20T13:23:11;26.90;39.40
63260;DHT22;49390;51.380;0.098;2023-07-20T13:25:39;26.90;39.50
63260;DHT22;49390;51.380;0.098;2023-07-20T13:28:10;27.00;39.30
63260;DHT22;49390;51.380;0.098;2023-07-20T13:30:44;27.20;39.20
63260;DHT22;49390;51.380;0.098;2023-07-20T13:33:16;27.40;38.60
63260;DHT22;49390;51.380;0.098;2023-07-20T13:35:45;27.60;38.10
63260;DHT22;49390;51.380;0.098;2023-07-20T13:38:19;27.80;37.90
63260;DHT22;49390;51.380;0.098;2023-07-20T13:40:50;27.90;37.60
63260;DHT22;49390;51.380;0.098;2023-07-20T13:43:20;27.90;37.60
63260;DHT22;49390;51.380;0.098;2023-07-20T13:45:47;27.80;37.50
63260;DHT22;49390;51.380;0.098;2023-07-20T13:48:16;27.70;37.60
63260;DHT22;49390;51.380;0.098;2023-07-20T13:50:51;27.50;37.80
63260;DHT22;49390;51.380;0.098;2023-07-20T13:53:25;27.20;38.00
63260;DHT22;49390;51.380;0.098;2023-07-20T13:55:55;27.00;38.00
63260;DHT22;49390;51.380;0.098;2023-07-20T13:58:27;26.90;38.10
63260;DHT22;49390;51.380;0.098;2023-07-20T14:00:58;27.00;38.10
63260;DHT22;49390;51.380;0.098;2023-07-20T14:03:26;27.10;37.70
63260;DHT22;49390;51.380;0.098;2023-07-20T14:05:54;27.30;36.80
63260;DHT22;49390;51.380;0.098;2023-07-20T14:08:25;27.20;36.50
63260;DHT22;49390;51.380;0.098;2023-07-20T14:10:53;27.10;36.50
63260;DHT22;49390;51.380;0.098;2023-07-20T14:13:24;27.00;36.60
63260;DHT22;49390;51.380;0.098;2023-07-20T14:16:08;26.90;36.70
63260;DHT22;49390;51.380;0.098;2023-07-20T14:18:37;26.90;36.90
63260;DHT22;49390;51.380;0.098;2023-07-20T14:21:05;26.90;37.10
63260;DHT22;49390;51.380;0.098;2023-07-20T14:23:38;27.00;37.50
63260;DHT22;49390;51.380;0.098;2023-07-20T14:26:06;27.00;37.50
63260;DHT22;49390;51.380;0.098;2023-07-20T14:28:38;27.00;37.60
63260;DHT22;49390;51.380;0.098;2023-07-20T14:31:08;26.90;37.70
63260;DHT22;49390;51.380;0.098;2023-07-20T14:33:36;26.80;37.80
63260;DHT22;49390;51.380;0.098;2023-07-20T14:36:08;26.70;37.80
63260;DHT22;49390;51.380;0.098;2023-07-20T14:38:39;26.60;37.80
63260;DHT22;49390;51.380;0.098;2023-07-20T14:41:09;26.50;37.80
63260;DHT22;49390;51.380;0.098;2023-07-20T14:43:39;26.40;38.00
63260;DHT22;49390;51.380;0.098;2023-07-20T14:46:10;26.40;38.10
63260;DHT22;49390;51.380;0.098;2023-07-20T14:48:38;26.50;38.20
63260;DHT22;49390;51.380;0.098;2023-07-20T14:51:07;26.60;38.10
63260;DHT22;49390;51.380;0.098;2023-07-20T14:53:35;26.70;37.80
63260;DHT22;49390;51.380;0.098;2023-07-20T14:56:04;26.80;37.90
63260;DHT22;49390;51.380;0.098;2023-07-20T14:58:33;26.90;38.00
63260;DHT22;49390;51.380;0.098;2023-07-20T15:01:05;26.90;38.30
63260;DHT22;49390;51.380;0.098;2023-07-20T15:03:33;26.90;39.20
63260;DHT22;49390;51.380;0.098;2023-07-20T15:06:01;26.70;38.60
63260;DHT22;49390;51.380;0.098;2023-07-20T15:08:30;26.60;38.80
63260;DHT22;49390;51.380;0.098;2023-07-20T15:10:58;26.60;38.90
63260;DHT22;49390;51.380;0.098;2023-07-20T15:13:27;26.50;39.00
63260;DHT22;49390;51.380;0.098;2023-07-20T15:15:55;26.50;39.00
63260;DHT22;49390;51.380;0.098;2023-07-20T15:18:23;26.50;38.70
63260;DHT22;49390;51.380;0.098;2023-07-20T15:21:11;26.40;38.80
63260;DHT22;49390;51.380;0.098;2023-07-20T15:23:39;26.20;38.70
63260;DHT22;49390;51.380;0.098;2023-07-20T15:26:07;26.00;39.00
63260;DHT22;49390;51.380;0.098;2023-07-20T15:28:36;25.90;39.30
63260;DHT22;49390;51.380;0.098;2023-07-20T15:31:04;25.90;39.30
63260;DHT22;49390;51.380;0.098;2023-07-20T15:33:33;25.90;38.70
63260;DHT22;49390;51.380;0.098;2023-07-20T15:36:01;26.00;38.00
63260;DHT22;49390;51.380;0.098;2023-07-20T15:38:30;26.00;38.00
63260;DHT22;49390;51.380;0.098;2023-07-20T15:40:58;26.10;38.00
63260;DHT22;49390;51.380;0.098;2023-07-20T15:43:30;26.10;38.10
63260;DHT22;49390;51.380;0.098;2023-07-20T15:48:47;26.20;37.90
63260;DHT22;49390;51.380;0.098;2023-07-20T15:51:15;26.20;37.60
63260;DHT22;49390;51.380;0.098;2023-07-20T15:53:43;26.20;37.30
63260;DHT22;49390;51.380;0.098;2023-07-20T15:56:11;26.20;37.00
63260;DHT22;49390;51.380;0.098;2023-07-20T15:58:40;26.20;37.00
63260;DHT22;49390;51.380;0.098;2023-07-20T16:01:08;26.20;36.90
63260;DHT22;49390;51.380;0.098;2023-07-20T16:03:37;26.20;37.00
63260;DHT22;49390;51.380;0.098;2023-07-20T16:06:05;26.00;37.10
63260;DHT22;49390;51.380;0.098;2023-07-20T16:08:33;25.80;37.10
63260;DHT22;49390;51.380;0.098;2023-07-20T16:11:01;25.80;37.20
63260;DHT22;49390;51.380;0.098;2023-07-20T16:13:31;25.70;37.00
63260;DHT22;49390;51.380;0.098;2023-07-20T16:15:59;25.70;37.10
63260;DHT22;49390;51.380;0.098;2023-07-20T16:18:27;25.50;38.20
63260;DHT22;49390;51.380;0.098;2023-07-20T16:20:59;25.50;37.80